sensor_id;sensor_type;location;lat;lon;timestamp;P1;durP1;ratioP1;P2;durP2;ratioP2
3321;SDS011;1673;51.388;7.086;2022-09-14T00:02:07;5.95;;;2.50;;
3321;SDS011;1673;51.388;7.086;2022-09-14T00:04:37;7.53;;;2.30;;
3321;SDS011;1673;51.388;7.086;2022-09-14T00:07:07;9.93;;;2.90;;
3321;SDS011;1673;51.388;7.086;2022-09-14T00:09:37;6.80;;;2.45;;
3321;SDS011;1673;51.388;7.086;2022-09-14T00:12:07;8.82;;;2.50;;
3321;SDS011;1673;51.388;7.086;2022-09-14T00:14:39;8.73;;;3.50;;
3321;SDS011;1673;51.388;7.086;2022-09-14T00:17:09;11.70;;;2.72;;
3321;SDS011;1673;51.388;7.086;2022-09-14T00:19:38;6.60;;;2.58;;
3321;SDS011;1673;51.388;7.086;2022-09-14T00:22:08;6.82;;;2.60;;
3321;SDS011;1673;51.388;7.086;2022-09-14T00:24:38;4.68;;;2.60;;
3321;SDS011;1673;51.388;7.086;2022-09-14T00:27:07;7.10;;;2.53;;
3321;SDS011;1673;51.388;7.086;2022-09-14T00:29:39;9.40;;;3.20;;
3321;SDS011;1673;51.388;7.086;2022-09-14T00:32:09;7.00;;;3.20;;
3321;SDS011;1673;51.388;7.086;2022-09-14T00:34:39;10.98;;;3.30;;
3321;SDS011;1673;51.388;7.086;2022-09-14T00:37:08;8.73;;;3.40;;
3321;SDS011;1673;51.388;7.086;2022-09-14T00:39:39;6.30;;;2.80;;
3321;SDS011;1673;51.388;7.086;2022-09-14T00:42:09;5.50;;;2.60;;
3321;SDS011;1673;51.388;7.086;2022-09-14T00:45:01;7.72;;;3.40;;
3321;SDS011;1673;51.388;7.086;2022-09-14T00:47:33;7.63;;;2.70;;
3321;SDS011;1673;51.388;7.086;2022-09-14T00:50:03;4.90;;;2.80;;
3321;SDS011;1673;51.388;7.086;2022-09-14T00:52:34;7.05;;;3.85;;
3321;SDS011;1673;51.388;7.086;2022-09-14T00:55:07;8.82;;;2.70;;
3321;SDS011;1673;51.388;7.086;2022-09-14T00:57:39;8.10;;;2.70;;
3321;SDS011;1673;51.388;7.086;2022-09-14T01:00:14;6.33;;;2.87;;
3321;SDS011;1673;51.388;7.086;2022-09-14T01:02:46;8.10;;;3.00;;
3321;SDS011;1673;51.388;7.086;2022-09-14T01:05:16;6.88;;;2.95;;
3321;SDS011;1673;51.388;7.086;2022-09-14T01:11:03;8.57;;;2.90;;
3321;SDS011;1673;51.388;7.086;2022-09-14T01:13:40;7.82;;;3.10;;
3321;SDS011;1673;51.388;7.086;2022-09-14T01:16:19;6.67;;;2.77;;
3321;SDS011;1673;51.388;7.086;2022-09-14T01:18:54;6.93;;;2.50;;
3321;SDS011;1673;51.388;7.086;2022-09-14T01:21:27;5.55;;;2.83;;
3321;SDS011;1673;51.388;7.086;2022-09-14T01:24:00;7.38;;;2.90;;
3321;SDS011;1673;51.388;7.086;2022-09-14T01:26:43;8.00;;;3.30;;
3321;SDS011;1673;51.388;7.086;2022-09-14T01:29:26;9.70;;;3.40;;
3321;SDS011;1673;51.388;7.086;2022-09-14T01:31:59;9.23;;;3.10;;
3321;SDS011;1673;51.388;7.086;2022-09-14T01:34:31;6.57;;;3.75;;
3321;SDS011;1673;51.388;7.086;2022-09-14T01:37:03;7.30;;;3.10;;
3321;SDS011;1673;51.388;7.086;2022-09-14T01:39:38;9.35;;;3.50;;
3321;SDS011;1673;51.388;7.086;2022-09-14T01:42:12;10.90;;;3.10;;
3321;SDS011;1673;51.388;7.086;2022-09-14T01:44:50;8.17;;;2.90;;
3321;SDS011;1673;51.388;7.086;2022-09-14T01:47:25;11.90;;;3.20;;
3321;SDS011;1673;51.388;7.086;2022-09-14T01:49:59;6.10;;;3.40;;
3321;SDS011;1673;51.388;7.086;2022-09-14T01:52:33;9.30;;;3.90;;
3321;SDS011;1673;51.388;7.086;2022-09-14T01:55:08;7.88;;;3.50;;
3321;SDS011;1673;51.388;7.086;2022-09-14T01:57:40;7.38;;;3.55;;
3321;SDS011;1673;51.388;7.086;2022-09-14T02:00:17;6.30;;;3.15;;
3321;SDS011;1673;51.388;7.086;2022-09-14T02:02:49;12.25;;;3.63;;
3321;SDS011;1673;51.388;7.086;2022-09-14T02:05:23;7.57;;;2.88;;
3321;SDS011;1673;51.388;7.086;2022-09-14T02:07:57;10.15;;;3.70;;
3321;SDS011;1673;51.388;7.086;2022-09-14T02:10:26;12.52;;;3.63;;
3321;SDS011;1673;51.388;7.086;2022-09-14T02:12:56;9.90;;;3.42;;
3321;SDS011;1673;51.388;7.086;2022-09-14T02:15:29;8.87;;;3.40;;
3321;SDS011;1673;51.388;7.086;2022-09-14T02:17:58;13.48;;;3.20;;
3321;SDS011;1673;51.388;7.086;2022-09-14T02:20:29;7.30;;;3.30;;
3321;SDS011;1673;51.388;7.086;2022-09-14T02:23:06;14.52;;;3.70;;
3321;SDS011;1673;51.388;7.086;2022-09-14T02:25:35;11.27;;;3.00;;
3321;SDS011;1673;51.388;7.086;2022-09-14T02:28:06;7.13;;;3.10;;
3321;SDS011;1673;51.388;7.086;2022-09-14T02:30:40;10.88;;;2.85;;
3321;SDS011;1673;51.388;7.086;2022-09-14T02:33:14;9.60;;;3.17;;
3321;SDS011;1673;51.388;7.086;2022-09-14T02:35:48;9.35;;;3.25;;
3321;SDS011;1673;51.388;7.086;2022-09-14T02:38:23;9.00;;;2.85;;
3321;SDS011;1673;51.388;7.086;2022-09-14T02:41:01;7.68;;;2.90;;
3321;SDS011;1673;51.388;7.086;2022-09-14T02:43:35;12.48;;;3.40;;
3321;SDS011;1673;51.388;7.086;2022-09-14T02:46:15;12.73;;;3.40;;
3321;SDS011;1673;51.388;7.086;2022-09-14T02:48:49;9.30;;;2.88;;
3321;SDS011;1673;51.388;7.086;2022-09-14T02:51:24;11.98;;;3.10;;
3321;SDS011;1673;51.388;7.086;2022-09-14T02:53:57;11.05;;;3.03;;
3321;SDS011;1673;51.388;7.086;2022-09-14T02:56:28;10.55;;;3.05;;
3321;SDS011;1673;51.388;7.086;2022-09-14T02:58:58;12.15;;;3.40;;
3321;SDS011;1673;51.388;7.086;2022-09-14T03:01:30;7.93;;;3.13;;
3321;SDS011;1673;51.388;7.086;2022-09-14T03:04:00;9.45;;;3.30;;
3321;SDS011;1673;51.388;7.086;2022-09-14T03:06:30;10.23;;;3.67;;
3321;SDS011;1673;51.388;7.086;2022-09-14T03:09:00;9.77;;;2.80;;
3321;SDS011;1673;51.388;7.086;2022-09-14T03:11:29;11.57;;;3.40;;
3321;SDS011;1673;51.388;7.086;2022-09-14T03:13:59;10.60;;;3.38;;
3321;SDS011;1673;51.388;7.086;2022-09-14T03:16:31;11.43;;;3.40;;
3321;SDS011;1673;51.388;7.086;2022-09-14T03:19:01;10.93;;;3.50;;
3321;SDS011;1673;51.388;7.086;2022-09-14T03:21:31;8.45;;;3.00;;
3321;SDS011;1673;51.388;7.086;2022-09-14T03:24:01;9.43;;;3.33;;
3321;SDS011;1673;51.388;7.086;2022-09-14T03:26:31;11.30;;;3.60;;
3321;SDS011;1673;51.388;7.086;2022-09-14T03:29:02;7.03;;;3.33;;
3321;SDS011;1673;51.388;7.086;2022-09-14T03:31:35;12.70;;;3.92;;
3321;SDS011;1673;51.388;7.086;2022-09-14T03:34:05;10.32;;;3.50;;
3321;SDS011;1673;51.388;7.086;2022-09-14T03:36:34;11.70;;;3.33;;
3321;SDS011;1673;51.388;7.086;2022-09-14T03:39:04;10.27;;;3.92;;
3321;SDS011;1673;51.388;7.086;2022-09-14T03:41:34;11.18;;;3.70;;
3321;SDS011;1673;51.388;7.086;2022-09-14T03:44:04;9.27;;;3.50;;
3321;SDS011;1673;51.388;7.086;2022-09-14T03:46:36;9.93;;;3.28;;
3321;SDS011;1673;51.388;7.086;2022-09-14T03:49:06;11.55;;;3.35;;
3321;SDS011;1673;51.388;7.086;2022-09-14T03:51:36;8.77;;;3.33;;
3321;SDS011;1673;51.388;7.086;2022-09-14T03:54:05;12.27;;;3.50;;
3321;SDS011;1673;51.388;7.086;2022-09-14T03:56:35;12.57;;;4.20;;
3321;SDS011;1673;51.388;7.086;2022-09-14T03:59:06;7.90;;;3.20;;
3321;SDS011;1673;51.388;7.086;2022-09-14T04:01:39;13.30;;;3.50;;
3321;SDS011;1673;51.388;7.086;2022-09-14T04:04:08;9.20;;;3.28;;
3321;SDS011;1673;51.388;7.086;2022-09-14T04:06:38;10.15;;;3.33;;
3321;SDS011;1673;51.388;7.086;2022-09-14T04:09:08;14.43;;;3.90;;
3321;SDS011;1673;51.388;7.086;2022-09-14T04:11:37;8.83;;;3.30;;
3321;SDS011;1673;51.388;7.086;2022-09-14T04:14:07;8.98;;;3.20;;
3321;SDS011;1673;51.388;7.086;2022-09-14T04:16:39;7.35;;;3.15;;
3321;SDS011;1673;51.388;7.086;2022-09-14T04:19:10;13.55;;;4.00;;
3321;SDS011;1673;51.388;7.086;2022-09-14T04:21:40;11.07;;;3.65;;
3321;SDS011;1673;51.388;7.086;2022-09-14T04:24:11;9.05;;;3.22;;
3321;SDS011;1673;51.388;7.086;2022-09-14T04:26:42;10.07;;;3.50;;
3321;SDS011;1673;51.388;7.086;2022-09-14T04:29:12;10.95;;;3.30;;
3321;SDS011;1673;51.388;7.086;2022-09-14T04:31:44;14.05;;;3.63;;
3321;SDS011;1673;51.388;7.086;2022-09-14T04:34:14;15.80;;;3.70;;
3321;SDS011;1673;51.388;7.086;2022-09-14T04:36:44;9.80;;;3.83;;
3321;SDS011;1673;51.388;7.086;2022-09-14T04:39:13;7.55;;;3.40;;
3321;SDS011;1673;51.388;7.086;2022-09-14T04:41:43;9.07;;;3.40;;
3321;SDS011;1673;51.388;7.086;2022-09-14T04:44:12;9.80;;;3.40;;
3321;SDS011;1673;51.388;7.086;2022-09-14T04:46:45;8.48;;;3.35;;
3321;SDS011;1673;51.388;7.086;2022-09-14T04:49:15;8.75;;;3.88;;
3321;SDS011;1673;51.388;7.086;2022-09-14T04:51:47;13.93;;;3.50;;
3321;SDS011;1673;51.388;7.086;2022-09-14T04:54:16;8.05;;;3.72;;
3321;SDS011;1673;51.388;7.086;2022-09-14T04:56:46;9.88;;;3.90;;
3321;SDS011;1673;51.388;7.086;2022-09-14T04:59:16;9.83;;;3.60;;
3321;SDS011;1673;51.388;7.086;2022-09-14T05:01:48;9.75;;;3.00;;
3321;SDS011;1673;51.388;7.086;2022-09-14T05:04:18;15.50;;;4.40;;
3321;SDS011;1673;51.388;7.086;2022-09-14T05:06:48;8.13;;;3.40;;
3321;SDS011;1673;51.388;7.086;2022-09-14T05:09:18;11.15;;;3.70;;
3321;SDS011;1673;51.388;7.086;2022-09-14T05:11:47;11.40;;;3.83;;
3321;SDS011;1673;51.388;7.086;2022-09-14T05:14:18;13.20;;;3.85;;
3321;SDS011;1673;51.388;7.086;2022-09-14T05:16:50;8.80;;;3.75;;
3321;SDS011;1673;51.388;7.086;2022-09-14T05:19:21;14.20;;;3.60;;
3321;SDS011;1673;51.388;7.086;2022-09-14T05:21:51;13.13;;;3.60;;
3321;SDS011;1673;51.388;7.086;2022-09-14T05:24:21;12.57;;;3.73;;
3321;SDS011;1673;51.388;7.086;2022-09-14T05:26:51;22.30;;;4.85;;
3321;SDS011;1673;51.388;7.086;2022-09-14T05:29:26;12.75;;;4.07;;
3321;SDS011;1673;51.388;7.086;2022-09-14T05:32:00;8.33;;;4.10;;
3321;SDS011;1673;51.388;7.086;2022-09-14T05:34:29;9.77;;;3.72;;
3321;SDS011;1673;51.388;7.086;2022-09-14T05:36:59;13.35;;;4.10;;
3321;SDS011;1673;51.388;7.086;2022-09-14T05:39:29;9.70;;;4.20;;
3321;SDS011;1673;51.388;7.086;2022-09-14T05:41:58;12.98;;;4.05;;
3321;SDS011;1673;51.388;7.086;2022-09-14T05:44:28;8.80;;;4.50;;
3321;SDS011;1673;51.388;7.086;2022-09-14T05:47:00;12.25;;;4.40;;
3321;SDS011;1673;51.388;7.086;2022-09-14T05:49:30;13.68;;;4.75;;
3321;SDS011;1673;51.388;7.086;2022-09-14T05:51:59;14.07;;;4.25;;
3321;SDS011;1673;51.388;7.086;2022-09-14T05:54:29;8.90;;;4.05;;
3321;SDS011;1673;51.388;7.086;2022-09-14T05:56:58;11.68;;;4.50;;
3321;SDS011;1673;51.388;7.086;2022-09-14T05:59:28;10.45;;;4.07;;
3321;SDS011;1673;51.388;7.086;2022-09-14T06:02:00;15.75;;;5.40;;
3321;SDS011;1673;51.388;7.086;2022-09-14T06:04:30;13.03;;;5.10;;
3321;SDS011;1673;51.388;7.086;2022-09-14T06:07:00;12.57;;;4.85;;
3321;SDS011;1673;51.388;7.086;2022-09-14T06:09:44;11.38;;;4.50;;
3321;SDS011;1673;51.388;7.086;2022-09-14T06:12:13;13.70;;;4.70;;
3321;SDS011;1673;51.388;7.086;2022-09-14T06:14:44;10.52;;;4.90;;
3321;SDS011;1673;51.388;7.086;2022-09-14T06:17:16;10.52;;;4.88;;
3321;SDS011;1673;51.388;7.086;2022-09-14T06:19:46;9.47;;;5.10;;
3321;SDS011;1673;51.388;7.086;2022-09-14T06:22:15;9.60;;;4.50;;
3321;SDS011;1673;51.388;7.086;2022-09-14T06:24:45;10.60;;;4.93;;
3321;SDS011;1673;51.388;7.086;2022-09-14T06:27:15;12.25;;;5.00;;
3321;SDS011;1673;51.388;7.086;2022-09-14T06:29:44;13.40;;;5.30;;
3321;SDS011;1673;51.388;7.086;2022-09-14T06:32:20;13.82;;;5.40;;
3321;SDS011;1673;51.388;7.086;2022-09-14T06:34:50;17.30;;;5.75;;
3321;SDS011;1673;51.388;7.086;2022-09-14T06:37:20;14.30;;;5.40;;
3321;SDS011;1673;51.388;7.086;2022-09-14T06:39:49;11.57;;;5.20;;
3321;SDS011;1673;51.388;7.086;2022-09-14T06:42:19;15.10;;;5.47;;
3321;SDS011;1673;51.388;7.086;2022-09-14T06:44:50;15.60;;;5.30;;
3321;SDS011;1673;51.388;7.086;2022-09-14T06:47:22;12.60;;;5.10;;
3321;SDS011;1673;51.388;7.086;2022-09-14T06:49:52;12.10;;;5.20;;
3321;SDS011;1673;51.388;7.086;2022-09-14T06:52:22;17.00;;;5.55;;
3321;SDS011;1673;51.388;7.086;2022-09-14T06:54:57;13.35;;;5.07;;
3321;SDS011;1673;51.388;7.086;2022-09-14T06:57:26;14.05;;;5.68;;
3321;SDS011;1673;51.388;7.086;2022-09-14T06:59:56;13.38;;;5.70;;
3321;SDS011;1673;51.388;7.086;2022-09-14T07:02:28;14.85;;;5.13;;
3321;SDS011;1673;51.388;7.086;2022-09-14T07:04:58;11.00;;;5.10;;
3321;SDS011;1673;51.388;7.086;2022-09-14T07:07:28;13.98;;;5.45;;
3321;SDS011;1673;51.388;7.086;2022-09-14T07:09:57;14.88;;;5.30;;
3321;SDS011;1673;51.388;7.086;2022-09-14T07:12:27;14.63;;;5.90;;
3321;SDS011;1673;51.388;7.086;2022-09-14T07:14:56;16.60;;;5.50;;
3321;SDS011;1673;51.388;7.086;2022-09-14T07:17:28;14.20;;;6.05;;
3321;SDS011;1673;51.388;7.086;2022-09-14T07:19:58;16.05;;;5.60;;
3321;SDS011;1673;51.388;7.086;2022-09-14T07:22:28;12.18;;;5.50;;
3321;SDS011;1673;51.388;7.086;2022-09-14T07:25:01;17.33;;;6.20;;
3321;SDS011;1673;51.388;7.086;2022-09-14T07:27:31;14.67;;;6.80;;
3321;SDS011;1673;51.388;7.086;2022-09-14T07:30:03;14.75;;;6.70;;
3321;SDS011;1673;51.388;7.086;2022-09-14T07:32:36;12.93;;;6.90;;
3321;SDS011;1673;51.388;7.086;2022-09-14T07:35:06;18.65;;;7.60;;
3321;SDS011;1673;51.388;7.086;2022-09-14T07:37:36;12.55;;;7.03;;
3321;SDS011;1673;51.388;7.086;2022-09-14T07:40:07;19.50;;;7.90;;
3321;SDS011;1673;51.388;7.086;2022-09-14T07:42:37;16.63;;;7.32;;
3321;SDS011;1673;51.388;7.086;2022-09-14T07:45:07;18.98;;;7.85;;
3321;SDS011;1673;51.388;7.086;2022-09-14T07:47:40;15.85;;;7.30;;
3321;SDS011;1673;51.388;7.086;2022-09-14T07:50:10;16.58;;;7.40;;
3321;SDS011;1673;51.388;7.086;2022-09-14T07:52:39;21.98;;;8.20;;
3321;SDS011;1673;51.388;7.086;2022-09-14T07:55:09;15.88;;;7.80;;
3321;SDS011;1673;51.388;7.086;2022-09-14T07:57:40;16.63;;;8.25;;
3321;SDS011;1673;51.388;7.086;2022-09-14T08:00:22;13.43;;;7.55;;
3321;SDS011;1673;51.388;7.086;2022-09-14T08:02:54;19.05;;;8.45;;
3321;SDS011;1673;51.388;7.086;2022-09-14T08:05:24;18.02;;;8.80;;
3321;SDS011;1673;51.388;7.086;2022-09-14T08:07:54;17.77;;;8.67;;
3321;SDS011;1673;51.388;7.086;2022-09-14T08:10:24;22.02;;;9.30;;
3321;SDS011;1673;51.388;7.086;2022-09-14T08:12:54;19.20;;;9.00;;
3321;SDS011;1673;51.388;7.086;2022-09-14T08:15:24;19.30;;;9.23;;
3321;SDS011;1673;51.388;7.086;2022-09-14T08:17:56;16.13;;;9.23;;
3321;SDS011;1673;51.388;7.086;2022-09-14T08:20:26;16.95;;;9.48;;
3321;SDS011;1673;51.388;7.086;2022-09-14T08:22:55;22.70;;;10.32;;
3321;SDS011;1673;51.388;7.086;2022-09-14T08:25:27;19.95;;;10.52;;
3321;SDS011;1673;51.388;7.086;2022-09-14T08:27:56;16.05;;;10.30;;
3321;SDS011;1673;51.388;7.086;2022-09-14T08:30:26;22.13;;;10.68;;
3321;SDS011;1673;51.388;7.086;2022-09-14T08:32:58;21.63;;;11.82;;
3321;SDS011;1673;51.388;7.086;2022-09-14T08:35:28;21.20;;;11.10;;
3321;SDS011;1673;51.388;7.086;2022-09-14T08:38:17;17.88;;;10.30;;
3321;SDS011;1673;51.388;7.086;2022-09-14T08:40:50;20.07;;;10.60;;
3321;SDS011;1673;51.388;7.086;2022-09-14T08:43:20;18.60;;;11.27;;
3321;SDS011;1673;51.388;7.086;2022-09-14T08:45:51;23.70;;;12.20;;
3321;SDS011;1673;51.388;7.086;2022-09-14T08:48:29;17.80;;;10.70;;
3321;SDS011;1673;51.388;7.086;2022-09-14T08:51:02;21.58;;;11.00;;
3321;SDS011;1673;51.388;7.086;2022-09-14T08:53:34;15.73;;;9.98;;
3321;SDS011;1673;51.388;7.086;2022-09-14T08:56:08;16.17;;;9.80;;
3321;SDS011;1673;51.388;7.086;2022-09-14T08:58:46;17.70;;;10.88;;
3321;SDS011;1673;51.388;7.086;2022-09-14T09:01:22;21.35;;;11.27;;
3321;SDS011;1673;51.388;7.086;2022-09-14T09:04:06;20.30;;;11.20;;
3321;SDS011;1673;51.388;7.086;2022-09-14T09:06:44;22.23;;;11.43;;
3321;SDS011;1673;51.388;7.086;2022-09-14T09:09:18;19.40;;;11.68;;
3321;SDS011;1673;51.388;7.086;2022-09-14T09:11:52;21.52;;;11.20;;
3321;SDS011;1673;51.388;7.086;2022-09-14T09:14:23;21.75;;;12.45;;
3321;SDS011;1673;51.388;7.086;2022-09-14T09:16:56;19.27;;;11.57;;
3321;SDS011;1673;51.388;7.086;2022-09-14T09:19:30;23.48;;;11.65;;
3321;SDS011;1673;51.388;7.086;2022-09-14T09:22:04;16.40;;;10.90;;
3321;SDS011;1673;51.388;7.086;2022-09-14T09:24:35;17.70;;;10.33;;
3321;SDS011;1673;51.388;7.086;2022-09-14T09:27:11;15.60;;;10.07;;
3321;SDS011;1673;51.388;7.086;2022-09-14T09:29:41;17.42;;;9.00;;
3321;SDS011;1673;51.388;7.086;2022-09-14T09:32:13;18.83;;;9.48;;
3321;SDS011;1673;51.388;7.086;2022-09-14T09:34:54;15.00;;;9.10;;
3321;SDS011;1673;51.388;7.086;2022-09-14T09:37:50;15.13;;;8.77;;
3321;SDS011;1673;51.388;7.086;2022-09-14T09:40:24;18.63;;;8.70;;
3321;SDS011;1673;51.388;7.086;2022-09-14T09:43:03;15.63;;;7.80;;
3321;SDS011;1673;51.388;7.086;2022-09-14T09:45:45;14.98;;;7.00;;
3321;SDS011;1673;51.388;7.086;2022-09-14T09:48:18;15.25;;;5.50;;
3321;SDS011;1673;51.388;7.086;2022-09-14T09:50:59;15.05;;;6.07;;
3321;SDS011;1673;51.388;7.086;2022-09-14T09:53:31;11.40;;;5.88;;
3321;SDS011;1673;51.388;7.086;2022-09-14T09:56:03;11.75;;;5.07;;
3321;SDS011;1673;51.388;7.086;2022-09-14T09:58:35;9.68;;;5.00;;
3321;SDS011;1673;51.388;7.086;2022-09-14T10:01:16;9.70;;;5.70;;
3321;SDS011;1673;51.388;7.086;2022-09-14T10:06:49;10.85;;;5.38;;
3321;SDS011;1673;51.388;7.086;2022-09-14T10:09:21;11.48;;;6.20;;
3321;SDS011;1673;51.388;7.086;2022-09-14T10:11:56;11.82;;;6.13;;
3321;SDS011;1673;51.388;7.086;2022-09-14T10:14:28;10.13;;;5.60;;
3321;SDS011;1673;51.388;7.086;2022-09-14T10:17:06;10.50;;;5.63;;
3321;SDS011;1673;51.388;7.086;2022-09-14T10:19:36;11.30;;;5.70;;
3321;SDS011;1673;51.388;7.086;2022-09-14T10:22:17;11.60;;;5.45;;
3321;SDS011;1673;51.388;7.086;2022-09-14T10:24:53;9.00;;;5.15;;
3321;SDS011;1673;51.388;7.086;2022-09-14T10:27:29;7.73;;;5.27;;
3321;SDS011;1673;51.388;7.086;2022-09-14T10:30:06;6.83;;;4.60;;
3321;SDS011;1673;51.388;7.086;2022-09-14T10:32:41;7.38;;;4.80;;
3321;SDS011;1673;51.388;7.086;2022-09-14T10:35:15;9.82;;;5.55;;
3321;SDS011;1673;51.388;7.086;2022-09-14T10:40:44;8.93;;;5.70;;
3321;SDS011;1673;51.388;7.086;2022-09-14T10:43:19;8.65;;;4.95;;
3321;SDS011;1673;51.388;7.086;2022-09-14T10:45:54;9.07;;;4.40;;
3321;SDS011;1673;51.388;7.086;2022-09-14T10:51:29;10.07;;;4.75;;
3321;SDS011;1673;51.388;7.086;2022-09-14T10:54:11;6.50;;;3.53;;
3321;SDS011;1673;51.388;7.086;2022-09-14T10:56:52;8.80;;;5.13;;
3321;SDS011;1673;51.388;7.086;2022-09-14T10:59:30;9.43;;;4.80;;
3321;SDS011;1673;51.388;7.086;2022-09-14T11:04:55;14.90;;;4.80;;
3321;SDS011;1673;51.388;7.086;2022-09-14T11:07:30;9.45;;;4.35;;
3321;SDS011;1673;51.388;7.086;2022-09-14T11:10:09;7.57;;;4.20;;
3321;SDS011;1673;51.388;7.086;2022-09-14T11:12:47;7.20;;;3.63;;
3321;SDS011;1673;51.388;7.086;2022-09-14T11:15:25;7.75;;;3.67;;
3321;SDS011;1673;51.388;7.086;2022-09-14T11:18:00;6.22;;;3.88;;
3321;SDS011;1673;51.388;7.086;2022-09-14T11:20:37;7.95;;;3.80;;
3321;SDS011;1673;51.388;7.086;2022-09-14T11:23:15;6.90;;;3.70;;
3321;SDS011;1673;51.388;7.086;2022-09-14T11:25:55;8.65;;;3.90;;
3321;SDS011;1673;51.388;7.086;2022-09-14T11:28:27;7.82;;;4.72;;
3321;SDS011;1673;51.388;7.086;2022-09-14T11:31:00;8.65;;;4.40;;
3321;SDS011;1673;51.388;7.086;2022-09-14T11:33:33;9.00;;;4.80;;
3321;SDS011;1673;51.388;7.086;2022-09-14T11:36:06;10.93;;;4.63;;
3321;SDS011;1673;51.388;7.086;2022-09-14T11:38:40;10.32;;;5.15;;
3321;SDS011;1673;51.388;7.086;2022-09-14T11:41:18;9.88;;;5.20;;
3321;SDS011;1673;51.388;7.086;2022-09-14T11:43:52;10.95;;;5.65;;
3321;SDS011;1673;51.388;7.086;2022-09-14T11:46:25;8.18;;;5.57;;
3321;SDS011;1673;51.388;7.086;2022-09-14T11:49:02;8.90;;;5.82;;
3321;SDS011;1673;51.388;7.086;2022-09-14T11:51:39;10.20;;;6.10;;
3321;SDS011;1673;51.388;7.086;2022-09-14T11:54:16;11.17;;;5.80;;
3321;SDS011;1673;51.388;7.086;2022-09-14T11:56:52;8.60;;;5.18;;
3321;SDS011;1673;51.388;7.086;2022-09-14T11:59:32;12.93;;;5.70;;
3321;SDS011;1673;51.388;7.086;2022-09-14T12:05:26;10.07;;;5.05;;
3321;SDS011;1673;51.388;7.086;2022-09-14T12:08:02;8.60;;;5.72;;
3321;SDS011;1673;51.388;7.086;2022-09-14T12:10:59;8.88;;;5.60;;
3321;SDS011;1673;51.388;7.086;2022-09-14T12:13:32;9.40;;;5.97;;
3321;SDS011;1673;51.388;7.086;2022-09-14T12:16:03;12.40;;;6.18;;
3321;SDS011;1673;51.388;7.086;2022-09-14T12:18:34;9.93;;;6.13;;
3321;SDS011;1673;51.388;7.086;2022-09-14T12:21:05;9.50;;;5.13;;
3321;SDS011;1673;51.388;7.086;2022-09-14T12:23:41;9.05;;;5.00;;
3321;SDS011;1673;51.388;7.086;2022-09-14T12:37:52;8.77;;;4.40;;
3321;SDS011;1673;51.388;7.086;2022-09-14T12:40:23;10.10;;;4.70;;
3321;SDS011;1673;51.388;7.086;2022-09-14T12:46:07;7.22;;;4.40;;
3321;SDS011;1673;51.388;7.086;2022-09-14T12:51:28;10.90;;;5.40;;
3321;SDS011;1673;51.388;7.086;2022-09-14T12:54:05;10.90;;;5.93;;
3321;SDS011;1673;51.388;7.086;2022-09-14T12:56:46;11.02;;;4.82;;
3321;SDS011;1673;51.388;7.086;2022-09-14T12:59:22;9.13;;;4.90;;
3321;SDS011;1673;51.388;7.086;2022-09-14T13:01:58;9.40;;;4.25;;
3321;SDS011;1673;51.388;7.086;2022-09-14T13:04:31;7.88;;;4.65;;
3321;SDS011;1673;51.388;7.086;2022-09-14T13:07:04;8.30;;;4.13;;
3321;SDS011;1673;51.388;7.086;2022-09-14T13:09:35;7.35;;;4.13;;
3321;SDS011;1673;51.388;7.086;2022-09-14T13:12:05;10.25;;;4.43;;
3321;SDS011;1673;51.388;7.086;2022-09-14T13:14:39;10.00;;;4.70;;
3321;SDS011;1673;51.388;7.086;2022-09-14T13:17:17;9.80;;;4.87;;
3321;SDS011;1673;51.388;7.086;2022-09-14T13:19:52;6.97;;;5.20;;
3321;SDS011;1673;51.388;7.086;2022-09-14T13:22:23;7.40;;;4.40;;
3321;SDS011;1673;51.388;7.086;2022-09-14T13:24:54;8.05;;;3.70;;
3321;SDS011;1673;51.388;7.086;2022-09-14T13:27:24;6.70;;;4.50;;
3321;SDS011;1673;51.388;7.086;2022-09-14T13:29:57;8.77;;;4.22;;
3321;SDS011;1673;51.388;7.086;2022-09-14T13:32:30;7.63;;;4.50;;
3321;SDS011;1673;51.388;7.086;2022-09-14T13:35:03;8.45;;;4.30;;
3321;SDS011;1673;51.388;7.086;2022-09-14T13:37:34;10.10;;;4.60;;
3321;SDS011;1673;51.388;7.086;2022-09-14T13:40:11;12.18;;;5.30;;
3321;SDS011;1673;51.388;7.086;2022-09-14T13:42:42;9.18;;;5.22;;
3321;SDS011;1673;51.388;7.086;2022-09-14T13:45:12;8.52;;;4.38;;
3321;SDS011;1673;51.388;7.086;2022-09-14T13:47:44;8.98;;;4.50;;
3321;SDS011;1673;51.388;7.086;2022-09-14T13:50:14;7.30;;;4.60;;
3321;SDS011;1673;51.388;7.086;2022-09-14T13:52:44;8.82;;;4.60;;
3321;SDS011;1673;51.388;7.086;2022-09-14T13:55:41;5.97;;;4.20;;
3321;SDS011;1673;51.388;7.086;2022-09-14T13:58:14;12.37;;;5.47;;
3321;SDS011;1673;51.388;7.086;2022-09-14T14:00:52;9.90;;;5.43;;
3321;SDS011;1673;51.388;7.086;2022-09-14T14:03:34;10.77;;;6.70;;
3321;SDS011;1673;51.388;7.086;2022-09-14T14:06:17;11.90;;;6.82;;
3321;SDS011;1673;51.388;7.086;2022-09-14T14:11:37;8.05;;;6.10;;
3321;SDS011;1673;51.388;7.086;2022-09-14T14:14:12;10.90;;;5.93;;
3321;SDS011;1673;51.388;7.086;2022-09-14T14:19:49;9.68;;;5.88;;
3321;SDS011;1673;51.388;7.086;2022-09-14T14:22:25;6.15;;;4.75;;
3321;SDS011;1673;51.388;7.086;2022-09-14T14:24:56;7.25;;;5.30;;
3321;SDS011;1673;51.388;7.086;2022-09-14T14:27:42;8.15;;;3.97;;
3321;SDS011;1673;51.388;7.086;2022-09-14T14:30:14;10.18;;;4.00;;
3321;SDS011;1673;51.388;7.086;2022-09-14T14:32:48;6.78;;;4.10;;
3321;SDS011;1673;51.388;7.086;2022-09-14T14:35:22;5.97;;;3.40;;
3321;SDS011;1673;51.388;7.086;2022-09-14T14:37:52;4.80;;;3.47;;
3321;SDS011;1673;51.388;7.086;2022-09-14T14:40:22;5.40;;;2.90;;
3321;SDS011;1673;51.388;7.086;2022-09-14T14:42:55;6.93;;;3.58;;
3321;SDS011;1673;51.388;7.086;2022-09-14T14:45:26;5.20;;;3.20;;
3321;SDS011;1673;51.388;7.086;2022-09-14T14:48:01;6.10;;;3.60;;
3321;SDS011;1673;51.388;7.086;2022-09-14T14:50:34;7.20;;;3.40;;
3321;SDS011;1673;51.388;7.086;2022-09-14T14:53:04;7.43;;;3.50;;
3321;SDS011;1673;51.388;7.086;2022-09-14T14:55:34;4.83;;;2.80;;
3321;SDS011;1673;51.388;7.086;2022-09-14T14:58:04;5.30;;;3.30;;
3321;SDS011;1673;51.388;7.086;2022-09-14T15:00:35;5.80;;;4.00;;
3321;SDS011;1673;51.388;7.086;2022-09-14T15:03:05;5.00;;;3.38;;
3321;SDS011;1673;51.388;7.086;2022-09-14T15:05:41;10.13;;;4.28;;
3321;SDS011;1673;51.388;7.086;2022-09-14T15:08:12;7.30;;;4.80;;
3321;SDS011;1673;51.388;7.086;2022-09-14T15:10:42;8.82;;;4.72;;
3321;SDS011;1673;51.388;7.086;2022-09-14T15:13:12;6.90;;;4.60;;
3321;SDS011;1673;51.388;7.086;2022-09-14T15:15:41;8.40;;;4.57;;
3321;SDS011;1673;51.388;7.086;2022-09-14T15:18:11;9.77;;;5.07;;
3321;SDS011;1673;51.388;7.086;2022-09-14T15:20:43;12.27;;;5.07;;
3321;SDS011;1673;51.388;7.086;2022-09-14T15:23:13;8.80;;;4.40;;
3321;SDS011;1673;51.388;7.086;2022-09-14T15:25:43;7.88;;;4.40;;
3321;SDS011;1673;51.388;7.086;2022-09-14T15:28:12;10.77;;;4.68;;
3321;SDS011;1673;51.388;7.086;2022-09-14T15:30:42;9.63;;;4.68;;
3321;SDS011;1673;51.388;7.086;2022-09-14T15:33:11;9.57;;;5.25;;
3321;SDS011;1673;51.388;7.086;2022-09-14T15:35:44;8.25;;;4.40;;
3321;SDS011;1673;51.388;7.086;2022-09-14T15:38:13;12.38;;;6.03;;
3321;SDS011;1673;51.388;7.086;2022-09-14T15:40:43;9.30;;;5.30;;
3321;SDS011;1673;51.388;7.086;2022-09-14T15:43:13;7.00;;;4.22;;
3321;SDS011;1673;51.388;7.086;2022-09-14T15:45:43;12.20;;;4.90;;
3321;SDS011;1673;51.388;7.086;2022-09-14T15:48:13;8.80;;;4.78;;
3321;SDS011;1673;51.388;7.086;2022-09-14T15:50:46;9.70;;;4.78;;
3321;SDS011;1673;51.388;7.086;2022-09-14T15:53:16;10.80;;;4.75;;
3321;SDS011;1673;51.388;7.086;2022-09-14T15:55:46;9.93;;;5.38;;
3321;SDS011;1673;51.388;7.086;2022-09-14T15:58:15;10.07;;;5.35;;
3321;SDS011;1673;51.388;7.086;2022-09-14T16:00:45;13.32;;;5.50;;
3321;SDS011;1673;51.388;7.086;2022-09-14T16:03:17;6.75;;;4.60;;
3321;SDS011;1673;51.388;7.086;2022-09-14T16:05:49;10.18;;;5.22;;
3321;SDS011;1673;51.388;7.086;2022-09-14T16:08:19;8.77;;;5.40;;
3321;SDS011;1673;51.388;7.086;2022-09-14T16:10:51;8.48;;;5.30;;
3321;SDS011;1673;51.388;7.086;2022-09-14T16:13:25;9.70;;;5.70;;
3321;SDS011;1673;51.388;7.086;2022-09-14T16:16:01;12.50;;;6.00;;
3321;SDS011;1673;51.388;7.086;2022-09-14T16:18:31;9.82;;;5.70;;
3321;SDS011;1673;51.388;7.086;2022-09-14T16:21:09;16.83;;;6.18;;
3321;SDS011;1673;51.388;7.086;2022-09-14T16:23:43;8.50;;;5.45;;